createdAt,value
2019-03-30T00:02:06.407Z,11.17
2019-03-30T00:04:36.733Z,11.53
2019-03-30T00:07:07.178Z,12.10
2019-03-30T00:09:37.601Z,11.07
2019-03-30T00:12:07.694Z,11.77
2019-03-30T00:14:37.725Z,10.97
2019-03-30T00:17:08.006Z,11.03
2019-03-30T00:19:37.996Z,11.83
2019-03-30T00:22:08.515Z,11.80
2019-03-30T00:24:38.931Z,11.60
2019-03-30T00:27:09.301Z,11.17
2019-03-30T00:29:39.363Z,12.47
2019-03-30T00:32:09.528Z,11.20
2019-03-30T00:34:39.710Z,10.93
2019-03-30T00:37:10.216Z,10.93
2019-03-30T00:39:40.437Z,11.73
2019-03-30T00:42:10.597Z,10.50
2019-03-30T00:44:40.777Z,10.17
2019-03-30T00:47:10.822Z,10.30
2019-03-30T00:49:49.140Z,11.13
2019-03-30T00:52:12.952Z,11.37
2019-03-30T00:54:43.074Z,10.70
2019-03-30T00:57:13.150Z,10.80
2019-03-30T00:59:43.484Z,12.47
2019-03-30T01:02:13.491Z,11.00
2019-03-30T01:04:43.608Z,12.40
2019-03-30T01:07:15.802Z,12.00
2019-03-30T01:09:46.034Z,10.70
2019-03-30T01:12:16.411Z,11.57
2019-03-30T01:14:46.552Z,11.23
2019-03-30T01:17:16.707Z,10.70
2019-03-30T01:19:47.210Z,12.40
2019-03-30T01:22:17.461Z,11.40
2019-03-30T01:24:47.818Z,12.50
2019-03-30T01:27:18.366Z,12.93
2019-03-30T01:29:48.511Z,11.67
2019-03-30T01:32:18.546Z,13.63
2019-03-30T01:34:48.930Z,12.17
2019-03-30T01:37:19.284Z,13.43
2019-03-30T01:39:49.295Z,10.97
2019-03-30T01:42:19.538Z,12.33
2019-03-30T01:44:49.794Z,13.50
2019-03-30T01:47:20.328Z,12.33
2019-03-30T01:49:50.647Z,11.77
2019-03-30T01:52:21.322Z,13.90
2019-03-30T01:54:51.401Z,11.43
2019-03-30T01:57:21.754Z,11.67
2019-03-30T01:59:52.181Z,12.37
2019-03-30T02:02:22.439Z,12.27
2019-03-30T02:04:52.743Z,11.67
2019-03-30T02:07:23.256Z,10.93
2019-03-30T02:09:53.366Z,12.33
2019-03-30T02:12:23.510Z,12.07
2019-03-30T02:14:53.841Z,11.10
2019-03-30T02:17:23.850Z,9.80
2019-03-30T02:19:53.990Z,10.77
2019-03-30T02:22:24.567Z,11.17
2019-03-30T02:24:54.635Z,9.97
2019-03-30T02:27:24.889Z,9.97
2019-03-30T02:29:54.991Z,9.73
2019-03-30T02:32:25.029Z,10.87
2019-03-30T02:34:55.147Z,9.67
2019-03-30T02:37:25.475Z,11.63
2019-03-30T02:39:55.522Z,10.47
2019-03-30T02:42:25.751Z,11.53
2019-03-30T02:44:55.804Z,8.80
2019-03-30T02:47:26.286Z,8.50
2019-03-30T02:49:56.377Z,10.00
2019-03-30T02:52:26.706Z,8.37
2019-03-30T02:54:56.952Z,8.47
2019-03-30T02:57:27.133Z,8.90
2019-03-30T02:59:57.221Z,8.57
2019-03-30T03:02:27.865Z,9.17
2019-03-30T03:04:57.936Z,9.70
2019-03-30T03:07:28.646Z,9.37
2019-03-30T03:09:58.878Z,9.80
2019-03-30T03:12:29.153Z,10.17
2019-03-30T03:14:59.372Z,9.53
2019-03-30T03:17:29.578Z,11.37
2019-03-30T03:19:59.699Z,10.30
2019-03-30T03:22:30.053Z,10.70
2019-03-30T03:25:00.635Z,10.87
2019-03-30T03:27:30.756Z,11.30
2019-03-30T03:30:01.318Z,11.63
2019-03-30T03:32:31.705Z,12.03
2019-03-30T03:35:01.831Z,13.20
2019-03-30T03:37:44.755Z,11.93
2019-03-30T03:40:05.185Z,11.40
2019-03-30T03:42:35.471Z,11.70
2019-03-30T03:45:06.110Z,11.53
2019-03-30T03:47:36.651Z,8.87
2019-03-30T03:50:07.202Z,11.03
2019-03-30T03:52:38.055Z,11.20
2019-03-30T03:55:08.115Z,10.63
2019-03-30T03:57:41.042Z,11.40
2019-03-30T04:00:12.363Z,10.33
2019-03-30T04:02:45.310Z,10.60
2019-03-30T04:05:15.343Z,11.13
2019-03-30T04:07:49.513Z,10.10
2019-03-30T04:10:20.522Z,10.17
2019-03-30T04:12:51.436Z,10.90
2019-03-30T04:15:27.930Z,11.23
2019-03-30T04:17:58.205Z,10.13
2019-03-30T04:20:28.452Z,10.63
2019-03-30T04:22:58.570Z,10.50
2019-03-30T04:25:28.917Z,10.53
2019-03-30T04:27:59.005Z,9.80
2019-03-30T04:30:29.302Z,10.47
2019-03-30T04:32:59.423Z,9.97
2019-03-30T04:35:29.564Z,10.53
2019-03-30T04:38:00.071Z,9.47
2019-03-30T04:40:30.128Z,10.50
2019-03-30T04:43:00.178Z,9.53
2019-03-30T04:45:30.328Z,8.93
2019-03-30T04:48:00.378Z,10.33
2019-03-30T04:50:30.499Z,10.07
2019-03-30T04:53:00.914Z,10.30
2019-03-30T04:55:30.939Z,10.77
2019-03-30T04:58:00.958Z,9.40
2019-03-30T05:00:31.249Z,9.43
2019-03-30T05:03:01.281Z,9.10
2019-03-30T05:05:31.482Z,10.63
2019-03-30T05:08:01.747Z,9.80
2019-03-30T05:10:31.769Z,9.00
2019-03-30T05:13:02.085Z,10.23
2019-03-30T05:15:32.307Z,9.77
2019-03-30T05:18:02.735Z,10.57
2019-03-30T05:20:33.039Z,10.60
2019-03-30T05:23:03.190Z,9.87
2019-03-30T05:25:33.262Z,10.27
2019-03-30T05:28:03.391Z,10.00
2019-03-30T05:30:33.431Z,10.13
2019-03-30T05:33:05.914Z,9.93
2019-03-30T05:35:36.494Z,9.93
2019-03-30T05:38:07.945Z,9.80
2019-03-30T05:40:43.409Z,9.70
2019-03-30T05:43:16.386Z,9.47
2019-03-30T05:45:48.932Z,9.43
2019-03-30T05:48:19.588Z,9.53
2019-03-30T05:50:49.973Z,9.93
2019-03-30T05:53:23.638Z,10.00
2019-03-30T05:55:53.899Z,9.60
2019-03-30T05:58:24.598Z,9.30
2019-03-30T06:00:55.345Z,10.20
2019-03-30T06:03:26.283Z,9.93
2019-03-30T06:05:56.448Z,10.67
2019-03-30T06:08:26.622Z,10.30
2019-03-30T06:10:57.324Z,10.47
2019-03-30T06:13:27.656Z,10.07
2019-03-30T06:15:58.082Z,10.37
2019-03-30T06:18:28.173Z,10.63
2019-03-30T06:20:58.452Z,11.00
2019-03-30T06:23:28.848Z,10.57
2019-03-30T06:25:58.935Z,10.40
2019-03-30T06:28:28.998Z,10.13
2019-03-30T06:30:59.314Z,9.73
2019-03-30T06:33:29.468Z,10.73
2019-03-30T06:35:59.944Z,10.60
2019-03-30T06:38:30.176Z,10.30
2019-03-30T06:41:00.152Z,10.10
2019-03-30T06:43:30.468Z,10.60
2019-03-30T06:46:01.267Z,10.90
2019-03-30T06:48:31.698Z,11.43
2019-03-30T06:51:01.824Z,10.73
2019-03-30T06:53:32.367Z,10.43
2019-03-30T06:56:02.537Z,10.10
2019-03-30T06:58:33.177Z,10.40
2019-03-30T07:01:03.273Z,10.87
2019-03-30T07:03:33.686Z,10.30
2019-03-30T07:06:04.497Z,11.20
2019-03-30T07:08:35.780Z,10.87
2019-03-30T07:11:20.174Z,11.90
2019-03-30T07:13:40.227Z,12.50
2019-03-30T07:16:10.679Z,13.30
2019-03-30T07:18:43.402Z,12.87
2019-03-30T07:21:13.790Z,13.43
2019-03-30T07:23:44.203Z,14.33
2019-03-30T07:26:14.258Z,14.33
2019-03-30T07:28:47.125Z,13.73
2019-03-30T07:31:16.517Z,15.23
2019-03-30T07:33:46.952Z,15.03
2019-03-30T07:36:17.264Z,16.80
2019-03-30T07:38:47.807Z,15.47
2019-03-30T07:41:18.184Z,16.53
2019-03-30T07:43:48.449Z,16.40
2019-03-30T07:46:19.718Z,16.37
2019-03-30T07:48:50.042Z,17.17
2019-03-30T07:51:20.082Z,17.73
2019-03-30T07:53:50.619Z,16.77
2019-03-30T07:56:20.885Z,17.43
2019-03-30T07:58:51.285Z,17.13
2019-03-30T08:01:21.322Z,19.37
2019-03-30T08:03:51.532Z,19.50
2019-03-30T08:06:21.784Z,19.33
2019-03-30T08:08:52.364Z,23.30
2019-03-30T08:11:22.344Z,21.63
2019-03-30T08:13:52.422Z,21.00
2019-03-30T08:16:22.827Z,20.57
2019-03-30T08:18:52.851Z,22.27
2019-03-30T08:21:23.108Z,22.37
2019-03-30T08:23:53.362Z,22.47
2019-03-30T08:26:23.482Z,23.43
2019-03-30T08:28:53.757Z,22.40
2019-03-30T08:31:23.753Z,20.97
2019-03-30T08:33:53.767Z,21.13
2019-03-30T08:36:24.093Z,19.07
2019-03-30T08:38:54.239Z,17.13
2019-03-30T08:41:24.336Z,17.70
2019-03-30T08:43:54.791Z,17.23
2019-03-30T08:46:24.936Z,18.73
2019-03-30T08:48:55.315Z,18.70
2019-03-30T08:51:25.467Z,20.03
2019-03-30T08:53:56.069Z,19.63
2019-03-30T08:56:28.055Z,19.70
2019-03-30T08:58:58.807Z,19.47
2019-03-30T09:01:28.931Z,18.47
2019-03-30T09:03:59.240Z,20.17
2019-03-30T09:06:29.749Z,23.00
2019-03-30T09:09:00.205Z,19.83
2019-03-30T09:11:30.684Z,21.00
2019-03-30T09:14:01.103Z,19.27
2019-03-30T09:16:31.278Z,17.63
2019-03-30T09:19:01.620Z,16.47
2019-03-30T09:21:31.895Z,16.37
2019-03-30T09:24:09.384Z,16.13
2019-03-30T09:26:34.486Z,16.43
2019-03-30T09:29:04.665Z,17.13
2019-03-30T09:31:35.058Z,17.17
2019-03-30T09:34:05.356Z,17.00
2019-03-30T09:36:35.691Z,17.93
2019-03-30T09:39:07.571Z,17.67
2019-03-30T09:41:37.659Z,17.43
2019-03-30T09:44:07.753Z,16.37
2019-03-30T09:46:38.026Z,17.73
2019-03-30T09:49:08.321Z,18.47
2019-03-30T09:51:38.607Z,18.30
2019-03-30T09:54:22.824Z,17.73
2019-03-30T09:56:41.140Z,17.83
2019-03-30T09:59:11.651Z,20.30
2019-03-30T10:01:42.160Z,18.83
2019-03-30T10:04:12.320Z,19.10
2019-03-30T10:06:42.627Z,20.93
2019-03-30T10:09:13.046Z,21.87
2019-03-30T10:11:43.142Z,20.43
2019-03-30T10:14:13.340Z,21.20
2019-03-30T10:16:48.588Z,20.17
2019-03-30T10:19:17.319Z,20.90
2019-03-30T10:21:47.715Z,20.33
2019-03-30T10:24:18.493Z,21.57
2019-03-30T10:26:48.947Z,23.43
2019-03-30T10:29:19.178Z,21.73
2019-03-30T10:31:50.017Z,22.93
2019-03-30T10:34:20.446Z,21.80
2019-03-30T10:36:50.889Z,23.73
2019-03-30T10:39:21.582Z,22.50
2019-03-30T10:41:52.081Z,21.33
2019-03-30T10:44:22.342Z,22.43
2019-03-30T10:46:52.591Z,23.60
2019-03-30T10:49:23.017Z,26.30
2019-03-30T10:51:54.409Z,22.73
2019-03-30T10:54:25.170Z,26.10
2019-03-30T10:56:55.653Z,22.83
2019-03-30T10:59:26.414Z,25.60
2019-03-30T11:01:56.944Z,23.90
2019-03-30T11:04:27.517Z,24.13
2019-03-30T11:06:57.907Z,22.17
2019-03-30T11:09:28.720Z,24.37
2019-03-30T11:11:58.929Z,25.17
2019-03-30T11:14:29.267Z,24.77
2019-03-30T11:16:59.558Z,25.13
2019-03-30T11:19:29.694Z,23.27
2019-03-30T11:22:02.993Z,22.73
2019-03-30T11:24:32.380Z,26.20
2019-03-30T11:27:02.977Z,24.00
2019-03-30T11:29:33.165Z,24.37
2019-03-30T11:32:03.532Z,23.63
2019-03-30T11:34:34.189Z,23.80
2019-03-30T11:37:05.516Z,28.17
2019-03-30T11:39:36.115Z,30.17
2019-03-30T11:42:06.301Z,25.80
2019-03-30T11:44:36.649Z,27.40
2019-03-30T11:47:07.022Z,26.87
2019-03-30T11:49:37.262Z,26.03
2019-03-30T11:52:07.328Z,24.90
2019-03-30T11:54:37.843Z,25.40
2019-03-30T11:57:08.351Z,26.73
2019-03-30T11:59:39.014Z,28.60
2019-03-30T12:02:09.324Z,29.30
2019-03-30T12:04:39.730Z,29.20
2019-03-30T12:07:10.071Z,32.37
2019-03-30T12:09:40.475Z,30.53
2019-03-30T12:12:11.228Z,31.67
2019-03-30T12:14:42.156Z,31.20
2019-03-30T12:17:12.910Z,36.77
2019-03-30T12:19:43.371Z,31.47
2019-03-30T12:22:13.703Z,34.20
2019-03-30T12:24:44.325Z,33.07
2019-03-30T12:27:18.754Z,33.00
2019-03-30T12:29:49.703Z,33.13
2019-03-30T12:32:20.304Z,34.07
2019-03-30T12:34:50.939Z,36.33
2019-03-30T12:37:21.490Z,38.77
2019-03-30T12:39:52.157Z,27.67
2019-03-30T12:42:22.669Z,37.13
2019-03-30T12:44:53.141Z,39.63
2019-03-30T12:47:23.847Z,39.93
2019-03-30T12:49:54.565Z,40.70
2019-03-30T12:52:26.519Z,41.90
2019-03-30T12:54:57.224Z,44.13
2019-03-30T12:57:27.655Z,48.03
2019-03-30T12:59:59.305Z,43.97
2019-03-30T13:02:29.583Z,44.83
2019-03-30T13:05:00.110Z,46.80
2019-03-30T13:07:30.336Z,44.03
2019-03-30T13:10:00.663Z,47.67
2019-03-30T13:12:31.248Z,48.67
2019-03-30T13:15:01.512Z,45.60
2019-03-30T13:17:32.003Z,45.93
2019-03-30T13:20:02.235Z,46.63
2019-03-30T13:22:32.459Z,47.33
2019-03-30T13:25:02.984Z,48.20
2019-03-30T13:27:32.985Z,47.43
2019-03-30T13:30:03.318Z,46.57
2019-03-30T13:32:33.853Z,48.57
2019-03-30T13:35:04.311Z,48.27
2019-03-30T13:37:34.552Z,49.37
2019-03-30T13:40:05.467Z,46.27
2019-03-30T13:42:36.111Z,44.07
2019-03-30T13:45:07.337Z,46.33
2019-03-30T13:47:37.747Z,44.73
2019-03-30T13:50:09.288Z,44.07
2019-03-30T13:52:39.612Z,43.27
2019-03-30T13:55:09.758Z,41.80
2019-03-30T13:57:39.857Z,43.53
2019-03-30T14:00:10.424Z,42.67
2019-03-30T14:02:43.913Z,43.27
2019-03-30T14:05:12.810Z,38.67
2019-03-30T14:07:42.977Z,40.67
2019-03-30T14:10:14.172Z,40.23
2019-03-30T14:12:44.397Z,41.17
2019-03-30T14:15:15.040Z,40.30
2019-03-30T14:17:45.326Z,41.03
2019-03-30T14:20:15.431Z,39.97
2019-03-30T14:22:46.088Z,38.73
2019-03-30T14:25:16.402Z,39.83
2019-03-30T14:27:46.922Z,38.13
2019-03-30T14:30:17.758Z,40.07
2019-03-30T14:32:48.266Z,36.67
2019-03-30T14:35:18.840Z,37.37
2019-03-30T14:37:49.520Z,36.17
2019-03-30T14:40:22.577Z,37.77
2019-03-30T14:42:55.815Z,36.00
2019-03-30T14:45:26.205Z,36.47
2019-03-30T14:47:58.024Z,35.67
2019-03-30T14:50:28.537Z,34.60
2019-03-30T14:52:58.679Z,34.10
2019-03-30T14:55:29.136Z,32.43
2019-03-30T14:57:59.426Z,31.93
2019-03-30T15:00:29.730Z,32.70
2019-03-30T15:03:00.301Z,31.77
2019-03-30T15:05:31.004Z,32.93
2019-03-30T15:08:01.241Z,31.03
2019-03-30T15:10:32.277Z,28.53
2019-03-30T15:13:02.780Z,26.80
2019-03-30T15:15:32.870Z,27.23
2019-03-30T15:18:03.359Z,25.50
2019-03-30T15:20:33.677Z,27.80
2019-03-30T15:23:03.957Z,25.70
2019-03-30T15:25:34.775Z,29.30
2019-03-30T15:28:05.071Z,29.33
2019-03-30T15:30:38.126Z,25.67
2019-03-30T15:33:08.983Z,25.67
2019-03-30T15:35:39.108Z,26.73
2019-03-30T15:38:09.404Z,27.63
2019-03-30T15:40:40.356Z,28.53
2019-03-30T15:43:10.646Z,27.37
2019-03-30T15:45:40.742Z,26.37
2019-03-30T15:48:11.359Z,25.97
2019-03-30T15:50:41.538Z,29.00
2019-03-30T15:53:12.193Z,28.90
2019-03-30T15:55:42.857Z,30.10
2019-03-30T15:58:13.162Z,31.17
2019-03-30T16:00:43.556Z,32.07
2019-03-30T16:03:14.248Z,30.30
2019-03-30T16:05:44.582Z,34.93
2019-03-30T16:08:15.103Z,32.40
2019-03-30T16:10:45.577Z,32.00
2019-03-30T16:13:16.048Z,31.07
2019-03-30T16:15:46.333Z,33.70
2019-03-30T16:18:17.356Z,36.87
2019-03-30T16:20:47.635Z,33.63
2019-03-30T16:23:18.057Z,30.80
2019-03-30T16:25:48.500Z,33.50
2019-03-30T16:28:18.765Z,31.93
2019-03-30T16:30:49.373Z,29.80
2019-03-30T16:33:19.650Z,31.00
2019-03-30T16:35:50.409Z,31.37
2019-03-30T16:38:20.932Z,28.90
2019-03-30T16:40:51.645Z,32.43
2019-03-30T16:43:22.069Z,28.63
2019-03-30T16:45:52.282Z,23.00
2019-03-30T16:48:22.559Z,23.93
2019-03-30T16:50:53.090Z,20.40
2019-03-30T16:53:23.217Z,20.20
2019-03-30T16:55:53.333Z,19.20
2019-03-30T16:58:23.623Z,19.17
2019-03-30T17:00:56.766Z,19.63
2019-03-30T17:03:26.109Z,17.10
2019-03-30T17:05:56.248Z,18.00
2019-03-30T17:08:26.218Z,17.30
2019-03-30T17:10:56.658Z,18.40
2019-03-30T17:13:26.873Z,16.43
2019-03-30T17:15:58.733Z,16.93
2019-03-30T17:18:28.924Z,16.90
2019-03-30T17:20:59.067Z,16.30
2019-03-30T17:23:29.390Z,16.17
2019-03-30T17:25:59.935Z,17.67
2019-03-30T17:28:30.297Z,17.20
2019-03-30T17:31:00.304Z,18.17
2019-03-30T17:33:30.944Z,16.83
2019-03-30T17:36:01.119Z,16.43
2019-03-30T17:38:31.283Z,16.77
2019-03-30T17:41:01.663Z,16.43
2019-03-30T17:43:31.863Z,16.10
2019-03-30T17:46:02.205Z,14.90
2019-03-30T17:48:32.722Z,15.80
2019-03-30T17:51:03.095Z,15.90
2019-03-30T17:53:33.186Z,17.37
2019-03-30T17:56:03.404Z,16.20
2019-03-30T17:58:33.959Z,17.23
2019-03-30T18:01:04.195Z,12.70
2019-03-30T18:03:34.386Z,15.73
2019-03-30T18:06:04.709Z,15.87
2019-03-30T18:08:37.558Z,15.73
2019-03-30T18:11:07.928Z,15.10
2019-03-30T18:13:38.197Z,14.90
2019-03-30T18:16:08.444Z,13.97
2019-03-30T18:18:38.909Z,15.73
2019-03-30T18:21:08.884Z,14.60
2019-03-30T18:23:39.089Z,13.40
2019-03-30T18:26:09.326Z,14.60
2019-03-30T18:28:39.556Z,15.10
2019-03-30T18:31:10.030Z,14.47
2019-03-30T18:33:40.144Z,11.87
2019-03-30T18:36:10.197Z,12.27
2019-03-30T18:38:41.636Z,13.40
2019-03-30T18:41:11.763Z,12.03
2019-03-30T18:43:42.353Z,14.17
2019-03-30T18:46:12.951Z,12.00
2019-03-30T18:48:43.378Z,12.23
2019-03-30T18:51:13.659Z,11.67
2019-03-30T18:53:44.465Z,10.43
2019-03-30T18:56:14.762Z,10.63
2019-03-30T18:58:45.134Z,9.73
2019-03-30T19:01:15.246Z,10.40
2019-03-30T19:03:45.512Z,9.23
2019-03-30T19:06:15.903Z,8.67
2019-03-30T19:08:46.164Z,8.93
2019-03-30T19:11:16.457Z,6.60
2019-03-30T19:13:46.837Z,6.40
2019-03-30T19:16:16.983Z,8.17
2019-03-30T19:18:47.688Z,6.10
2019-03-30T19:21:17.927Z,7.67
2019-03-30T19:23:48.328Z,5.23
2019-03-30T19:26:18.475Z,6.10
2019-03-30T19:28:56.131Z,6.37
2019-03-30T19:31:20.752Z,5.33
2019-03-30T19:33:50.905Z,6.80
2019-03-30T19:36:21.314Z,6.53
2019-03-30T19:38:51.535Z,5.83
2019-03-30T19:41:21.672Z,5.40
2019-03-30T19:43:52.181Z,4.50
2019-03-30T19:46:22.325Z,3.70
2019-03-30T19:48:52.486Z,3.00
2019-03-30T19:51:22.945Z,2.97
2019-03-30T19:53:53.059Z,2.73
2019-03-30T19:56:23.280Z,2.20
2019-03-30T19:58:53.569Z,3.10
2019-03-30T20:01:23.693Z,6.63
2019-03-30T20:03:54.073Z,2.97
2019-03-30T20:06:24.246Z,3.40
2019-03-30T20:08:55.037Z,2.97
2019-03-30T20:11:25.740Z,3.13
2019-03-30T20:13:56.532Z,3.33
2019-03-30T20:16:26.963Z,3.13
2019-03-30T20:19:11.597Z,2.77
2019-03-30T20:21:29.655Z,2.63
2019-03-30T20:24:00.256Z,2.90
2019-03-30T20:26:30.709Z,3.30
2019-03-30T20:29:01.416Z,3.00
2019-03-30T20:31:31.759Z,4.33
2019-03-30T20:34:02.566Z,5.00
2019-03-30T20:36:35.193Z,3.73
2019-03-30T20:39:08.204Z,4.03
2019-03-30T20:41:37.888Z,3.73
2019-03-30T20:44:08.399Z,3.83
2019-03-30T20:46:38.652Z,2.90
2019-03-30T20:49:09.044Z,3.30
2019-03-30T20:51:39.175Z,2.80
2019-03-30T20:54:09.306Z,2.90
2019-03-30T20:56:39.969Z,3.47
2019-03-30T20:59:10.255Z,2.00
2019-03-30T21:01:40.732Z,2.80
2019-03-30T21:04:11.215Z,2.53
2019-03-30T21:06:41.600Z,2.47
2019-03-30T21:09:12.184Z,3.10
2019-03-30T21:11:42.550Z,2.83
2019-03-30T21:14:12.759Z,2.90
2019-03-30T21:16:43.322Z,2.77
2019-03-30T21:19:13.614Z,7.07
2019-03-30T21:21:44.086Z,3.10
2019-03-30T21:24:14.632Z,2.73
2019-03-30T21:26:45.207Z,2.53
2019-03-30T21:29:15.700Z,2.50
2019-03-30T21:31:49.119Z,2.40
2019-03-30T21:34:18.422Z,2.83
2019-03-30T21:36:48.974Z,3.00
2019-03-30T21:39:19.326Z,3.03
2019-03-30T21:41:50.271Z,2.23
2019-03-30T21:44:22.286Z,3.60
2019-03-30T21:46:52.975Z,6.63
2019-03-30T21:49:23.276Z,2.90
2019-03-30T21:51:53.535Z,2.80
2019-03-30T21:54:23.928Z,4.20
2019-03-30T21:56:54.287Z,2.13
2019-03-30T21:59:24.685Z,3.90
2019-03-30T22:01:55.194Z,2.80
2019-03-30T22:04:25.514Z,2.87
2019-03-30T22:06:56.020Z,3.33
2019-03-30T22:09:26.369Z,4.77
2019-03-30T22:11:57.129Z,3.20
2019-03-30T22:14:27.611Z,4.03
2019-03-30T22:16:58.031Z,3.50
2019-03-30T22:19:28.374Z,4.10
2019-03-30T22:21:58.647Z,3.77
2019-03-30T22:24:29.209Z,3.20
2019-03-30T22:26:59.702Z,2.87
2019-03-30T22:29:30.121Z,3.87
2019-03-30T22:32:00.328Z,4.13
2019-03-30T22:34:30.600Z,6.97
2019-03-30T22:37:00.919Z,3.20
2019-03-30T22:39:31.255Z,3.43
2019-03-30T22:42:01.730Z,3.43
2019-03-30T22:44:32.424Z,3.70
2019-03-30T22:47:02.558Z,4.77
2019-03-30T22:49:33.317Z,3.40
2019-03-30T22:52:03.536Z,4.13
2019-03-30T22:54:34.140Z,4.37
2019-03-30T22:57:04.834Z,3.97
2019-03-30T22:59:35.270Z,4.20
2019-03-30T23:02:05.925Z,4.20
2019-03-30T23:04:36.409Z,4.43
2019-03-30T23:07:06.547Z,4.63
2019-03-30T23:09:37.024Z,4.00
2019-03-30T23:12:07.434Z,4.43
2019-03-30T23:14:38.226Z,3.30
2019-03-30T23:17:08.555Z,3.33
2019-03-30T23:19:38.771Z,4.17
2019-03-30T23:22:09.184Z,3.97
2019-03-30T23:24:39.475Z,3.40
2019-03-30T23:27:10.048Z,3.50
2019-03-30T23:29:40.224Z,3.17
2019-03-30T23:32:10.652Z,3.40
2019-03-30T23:34:40.920Z,3.60
2019-03-30T23:37:11.419Z,8.00
2019-03-30T23:39:41.626Z,3.57
2019-03-30T23:42:12.345Z,3.53
2019-03-30T23:44:42.584Z,5.33
2019-03-30T23:47:12.710Z,8.23
2019-03-30T23:49:43.509Z,4.53
2019-03-30T23:52:14.125Z,7.67
2019-03-30T23:54:44.476Z,53.33
2019-03-30T23:57:14.732Z,4.90
2019-03-30T23:59:45.312Z,4.27
